Highfield-Cascade, MD

9:18 AM EDT on September 04, 2015 (GMT -0400)
On "the mountain" | | Change Station
CLOSE
Current Station
Personal Weather Station
Location: Cascade, MD
Elevation: 1505 ft
Nearby Weather Stations

Elev 1505 ft 39.72 °N, 77.47 °W | Updated 28 seconds ago

Clear
Clear
75.4 °F
Feels Like 75 °F
N
2.0
Wind Variable Wind from NE
Gusts 4.0 mph

Today
High -- | Low -- °F
--% Chance of Precip.
Yesterday
High -- | Low -- °F
Precip. -- in
6:40 AM 7:36 PM
Waning Gibbous, 59% visible
Pressure 30.00 in
Visibility 7.0 miles
Clouds Clear
Heat Index 75 °F
Dew Point 71 °F
Humidity 86%
Rainfall 0.00 in
Snow Depth Not available.
UV 2 out of 12
Pollen 7.80 out of 12
Air Quality Not available.
Flu Activity Not available.
METAR KRYT 041253Z AUTO 00000KT 7SM CLR 24/20 A3004 RMK AO2 SLP159 T02390200 $
Pressure 30.00 in
Visibility 7.0 miles
Clouds Clear
Heat Index 75 °F
Dew Point 71 °F
Humidity 86%
Rainfall 0.00 in
Snow Depth Not available.
UV 2 out of 12
Pollen 7.80 out of 12
Air Quality Not available.
Flu Activity Not available.
METAR KRYT 041253Z AUTO 00000KT 7SM CLR 24/20 A3004 RMK AO2 SLP159 T02390200 $

10-Day Weather Forecast

×

Almanac

Astronomy

Sep. 04, 2015 Rise Set
Actual Time
Civil Twilight
Nautical Twilight
Astronomical Twilight
Moon
Length of Visible Light
Length of Day
Tomorrow will be .
, % of the Moon is Illuminated

Today's Extremes

State Highs State Lows

Community

WunderPhotos

Upload Photos

1,852,179 photos uploaded!

WunderBlogs® & News

Nearby

Air Quality

  Air Quality AQ Index Pollutant
Not available.

Snow Depth

Station Depth Elevation

Earthquake Activity

City Distance Mag. Time & Date
Minimum magnitude displayed is 2.5.

Coastal Water Temperatures

Place Temperature

Stations

Nearby Weather Stations

Station Location Temp. Windchill Dew Point Humidity Wind Precip. Elev Updated Type